Time;durP1;ratioP1;P1;durP2;ratioP2;P2;SDS_P1;SDS_P2;PMS_P1;PMS_P2;Temp;Humidity;BMP_temperature;BMP_pressure;BME280_temperature;BME280_humidity;BME280_pressure;Samples;Min_cycle;Max_cycle;Signal;HPM_P1;HPM_P2
2022/04/03 00:00:41;;;;;;;;;;;;;;;4.05;59.41;98708.25;4417986;32;20025;-92
2022/04/03 00:03:06;;;;;;;;;;;;;;;4.19;59.40;98710.47;4431929;32;20316;-91
2022/04/03 00:05:38;;;;;;;;;;;;;;;4.06;59.41;98709.94;4415926;32;19992;-91
2022/04/03 00:08:04;;;;;;;;;;;;;;;3.94;59.39;98713.59;4425331;32;19990;-91
2022/04/03 00:10:29;;;;;;;;;;;;;;;3.93;59.39;98717.06;4429833;32;20013;-90
2022/04/03 00:12:55;;;;;;;;;;;;;;;3.84;59.39;98719.84;4413434;32;19993;-91
2022/04/03 00:15:20;;;;;;;;;;;;;;;4.03;59.40;98722.88;4423848;32;20263;-91
2022/04/03 00:17:45;;;;;;;;;;;;;;;3.94;59.39;98721.34;4442685;32;19994;-90
2022/04/03 00:20:11;;;;;;;;;;;;;;;3.99;59.40;98727.22;4420031;32;20025;-91
2022/04/03 00:22:36;;;;;;;;;;;;;;;4.11;59.40;98712.41;4423891;32;20350;-91
2022/04/03 00:25:01;;;;;;;;;;;;;;;4.03;59.40;98722.03;4426589;32;20017;-90
2022/04/03 00:27:26;;;;;;;;;;;;;;;3.95;59.40;98722.19;4415843;32;19978;-90
2022/04/03 00:29:52;;;;;;;;;;;;;;;4.10;59.40;98732.16;4426029;32;20057;-90
2022/04/03 00:32:17;;;;;;;;;;;;;;;4.00;59.40;98728.91;4419965;32;19990;-91
2022/04/03 00:34:42;;;;;;;;;;;;;;;4.14;59.41;98728.63;4416028;32;20023;-89
2022/04/03 00:37:08;;;;;;;;;;;;;;;3.93;59.39;98740.25;4429209;32;20314;-90
2022/04/03 00:39:33;;;;;;;;;;;;;;;4.04;59.40;98736.59;4425981;32;19990;-90
2022/04/03 00:41:58;;;;;;;;;;;;;;;4.00;59.40;98740.94;4443253;32;19997;-90
2022/04/03 00:44:23;;;;;;;;;;;;;;;3.98;59.41;98746.13;4428625;32;19993;-90
2022/04/03 00:46:49;;;;;;;;;;;;;;;4.13;59.41;98749.25;4421288;32;20604;-91
2022/04/03 00:49:14;;;;;;;;;;;;;;;3.94;59.39;98752.22;4425789;32;20029;-89
2022/04/03 00:51:39;;;;;;;;;;;;;;;3.97;59.39;98746.16;4423876;32;19982;-91
2022/04/03 00:54:05;;;;;;;;;;;;;;;3.98;59.39;98747.84;4430610;32;19973;-91
2022/04/03 00:56:30;;;;;;;;;;;;;;;4.11;59.40;98751.03;4423784;32;20349;-90
2022/04/03 00:58:56;;;;;;;;;;;;;;;4.10;59.41;98752.75;4423908;32;20053;-91
2022/04/03 01:01:21;;;;;;;;;;;;;;;3.97;59.41;98752.16;4413589;32;20032;-92
2022/04/03 01:03:47;;;;;;;;;;;;;;;4.11;59.40;98762.16;4430655;32;19981;-92
2022/04/03 01:06:12;;;;;;;;;;;;;;;4.01;59.40;98761.50;4423174;32;20010;-91
2022/04/03 01:08:37;;;;;;;;;;;;;;;4.07;59.40;98767.44;4411633;32;20328;-92
2022/04/03 01:11:03;;;;;;;;;;;;;;;3.88;59.39;98772.97;4434043;32;19993;-92
2022/04/03 01:13:28;;;;;;;;;;;;;;;3.95;59.40;98774.53;4419707;32;19982;-92
2022/04/03 01:15:54;;;;;;;;;;;;;;;3.97;59.39;98774.47;4425557;32;19997;-91
2022/04/03 01:18:19;;;;;;;;;;;;;;;3.94;59.40;98774.56;4415645;32;19994;-92
2022/04/03 01:20:45;;;;;;;;;;;;;;;3.85;59.40;98775.59;4429738;32;19997;-89
2022/04/03 01:23:10;;;;;;;;;;;;;;;3.82;59.39;98779.97;4416550;32;20322;-91
2022/04/03 01:25:35;;;;;;;;;;;;;;;3.91;59.40;98780.63;4411588;32;20327;-91
2022/04/03 01:28:00;;;;;;;;;;;;;;;3.97;59.39;98779.63;4423476;32;20025;-90
2022/04/03 01:30:26;;;;;;;;;;;;;;;4.00;59.40;98782.13;4422319;32;20001;-93
2022/04/03 01:32:51;;;;;;;;;;;;;;;3.93;59.39;98788.31;4432177;32;24259;-92
2022/04/03 01:35:17;;;;;;;;;;;;;;;3.95;59.39;98782.25;4420565;32;19995;-93
2022/04/03 01:37:42;;;;;;;;;;;;;;;4.00;59.40;98777.84;4433794;32;19997;-93
2022/04/03 01:40:08;;;;;;;;;;;;;;;4.14;59.41;98790.44;4415117;32;20228;-90
2022/04/03 01:42:33;;;;;;;;;;;;;;;4.04;59.40;98788.09;4415887;32;19977;-91
2022/04/03 01:44:59;;;;;;;;;;;;;;;4.14;59.41;98789.59;4440380;32;19965;-93
2022/04/03 01:47:24;;;;;;;;;;;;;;;4.05;59.41;98793.22;4424552;32;20035;-95
2022/04/03 01:49:49;;;;;;;;;;;;;;;4.27;59.42;98796.19;4433932;32;20228;-94
2022/04/03 01:52:15;;;;;;;;;;;;;;;4.46;59.42;98802.59;4421943;32;20008;-94
2022/04/03 01:54:40;;;;;;;;;;;;;;;4.30;59.42;98801.25;4423852;32;19977;-93
2022/04/03 01:57:05;;;;;;;;;;;;;;;4.24;59.41;98806.53;4424593;32;20029;-95
2022/04/03 01:59:31;;;;;;;;;;;;;;;4.10;59.40;98818.88;4424342;32;20051;-93
2022/04/03 02:01:56;;;;;;;;;;;;;;;4.14;59.41;98817.91;4424153;32;19981;-92
2022/04/03 02:04:21;;;;;;;;;;;;;;;4.14;59.41;98815.34;4417688;32;20017;-93
2022/04/03 02:06:46;;;;;;;;;;;;;;;3.97;59.39;98807.94;4424489;32;20044;-93
2022/04/03 02:09:12;;;;;;;;;;;;;;;4.04;59.40;98821.56;4423715;32;20319;-91
2022/04/03 02:11:38;;;;;;;;;;;;;;;4.24;59.41;98819.41;4423128;32;19989;-91
2022/04/03 02:14:05;;;;;;;;;;;;;;;4.33;59.41;98826.94;4433281;32;20357;-91
2022/04/03 02:16:30;;;;;;;;;;;;;;;4.39;59.42;98819.09;4437970;32;20330;-91
2022/04/03 02:18:55;;;;;;;;;;;;;;;4.50;59.43;98830.00;4411395;32;20043;-91
2022/04/03 02:21:21;;;;;;;;;;;;;;;4.53;59.43;98829.94;4437557;32;19982;-90
2022/04/03 02:23:46;;;;;;;;;;;;;;;4.31;59.41;98829.56;4423433;32;20020;-90
2022/04/03 02:26:11;;;;;;;;;;;;;;;4.30;59.42;98833.03;4423934;32;20386;-91
2022/04/03 02:28:39;;;;;;;;;;;;;;;4.35;59.42;98826.91;4422723;32;20029;-91
2022/04/03 02:31:04;;;;;;;;;;;;;;;4.15;59.41;98827.34;4419836;32;19979;-90
2022/04/03 02:33:29;;;;;;;;;;;;;;;4.31;59.41;98831.28;4423290;32;19970;-91
2022/04/03 02:35:54;;;;;;;;;;;;;;;4.31;59.41;98834.72;4424901;32;20052;-90
2022/04/03 02:38:20;;;;;;;;;;;;;;;4.38;59.42;98832.84;4415044;32;20379;-89
2022/04/03 02:40:45;;;;;;;;;;;;;;;4.33;59.41;98837.25;4417745;32;20080;-90
2022/04/03 02:43:10;;;;;;;;;;;;;;;4.42;59.42;98843.94;4418314;32;20031;-89
2022/04/03 02:45:36;;;;;;;;;;;;;;;4.30;59.42;98845.91;4416742;32;19989;-88
2022/04/03 02:48:01;;;;;;;;;;;;;;;4.17;59.41;98846.19;4415104;32;20041;-91
2022/04/03 02:50:26;;;;;;;;;;;;;;;3.95;59.39;98853.47;4427491;32;19992;-90
2022/04/03 02:52:52;;;;;;;;;;;;;;;4.13;59.41;98853.13;4443307;32;20029;-90
2022/04/03 02:55:17;;;;;;;;;;;;;;;4.12;59.40;98860.88;4424854;32;20072;-91
2022/04/03 02:57:43;;;;;;;;;;;;;;;3.87;59.39;98855.38;4434528;32;19997;-91
2022/04/03 03:00:08;;;;;;;;;;;;;;;3.86;59.39;98861.41;4428449;32;20329;-91
2022/04/03 03:02:34;;;;;;;;;;;;;;;3.94;59.39;98869.81;4427383;32;19973;-91
2022/04/03 03:04:59;;;;;;;;;;;;;;;3.93;59.39;98874.13;4422360;32;19996;-91
2022/04/03 03:07:24;;;;;;;;;;;;;;;3.98;59.39;98881.75;4414035;32;20451;-91
2022/04/03 03:09:49;;;;;;;;;;;;;;;3.85;59.39;98881.16;4431910;32;19977;-92
2022/04/03 03:12:14;;;;;;;;;;;;;;;3.92;59.40;98874.16;4425168;32;20001;-89
2022/04/03 03:14:40;;;;;;;;;;;;;;;3.72;59.38;98884.81;4430121;32;20017;-90
2022/04/03 03:17:05;;;;;;;;;;;;;;;3.98;59.40;98892.88;4416347;32;19997;-88
2022/04/03 03:19:30;;;;;;;;;;;;;;;4.11;59.40;98884.94;4414641;32;19970;-88
2022/04/03 03:21:55;;;;;;;;;;;;;;;3.96;59.39;98899.78;4431872;32;19989;-88
2022/04/03 03:24:21;;;;;;;;;;;;;;;3.88;59.39;98896.53;4416231;32;20049;-88
2022/04/03 03:26:46;;;;;;;;;;;;;;;4.00;59.40;98903.16;4414534;32;20048;-89
2022/04/03 03:29:12;;;;;;;;;;;;;;;3.95;59.39;98908.41;4419019;32;19993;-89
2022/04/03 03:31:37;;;;;;;;;;;;;;;3.91;59.40;98911.91;4428550;32;19981;-87
2022/04/03 03:34:02;;;;;;;;;;;;;;;4.05;59.41;98911.66;4428709;32;20005;-88
2022/04/03 03:36:27;;;;;;;;;;;;;;;4.09;59.40;98920.19;4427639;32;19996;-89
2022/04/03 03:38:54;;;;;;;;;;;;;;;4.22;59.41;98916.47;4419563;32;19985;-89
2022/04/03 03:41:19;;;;;;;;;;;;;;;4.32;59.41;98918.00;4426283;32;19996;-89
2022/04/03 03:43:44;;;;;;;;;;;;;;;4.32;59.41;98923.16;4424957;32;20002;-91
2022/04/03 03:46:10;;;;;;;;;;;;;;;4.24;59.42;98919.84;4438569;32;19993;-91
2022/04/03 03:48:35;;;;;;;;;;;;;;;4.23;59.41;98933.63;4421831;32;19985;-92
2022/04/03 03:51:01;;;;;;;;;;;;;;;4.10;59.40;98935.59;4423876;32;20303;-90
2022/04/03 03:53:26;;;;;;;;;;;;;;;4.05;59.40;98931.41;4427403;32;19993;-91
2022/04/03 03:55:52;;;;;;;;;;;;;;;3.85;59.39;98934.34;4436836;32;20022;-92
2022/04/03 03:58:17;;;;;;;;;;;;;;;3.95;59.39;98941.03;4432727;32;20535;-91
2022/04/03 04:00:42;;;;;;;;;;;;;;;3.97;59.39;98941.84;4426661;32;20009;-89
2022/04/03 04:03:07;;;;;;;;;;;;;;;4.13;59.41;98951.00;4441846;32;20057;-89
2022/04/03 04:05:33;;;;;;;;;;;;;;;3.85;59.39;98953.22;4430663;32;20510;-89
2022/04/03 04:07:58;;;;;;;;;;;;;;;3.87;59.39;98955.78;4425861;32;20024;-89
2022/04/03 04:10:23;;;;;;;;;;;;;;;3.98;59.39;98959.00;4425509;32;20012;-90
2022/04/03 04:12:48;;;;;;;;;;;;;;;3.84;59.39;98969.53;4432125;32;20060;-90
2022/04/03 04:15:14;;;;;;;;;;;;;;;3.96;59.39;98971.03;4425517;32;20771;-91
2022/04/03 04:17:40;;;;;;;;;;;;;;;3.73;59.38;98965.44;4431031;32;20251;-92
2022/04/03 04:20:11;;;;;;;;;;;;;;;3.71;59.39;98975.75;4410373;32;19970;-92
2022/04/03 04:22:36;;;;;;;;;;;;;;;3.70;59.38;98979.22;4424200;32;20020;-92
2022/04/03 04:25:02;;;;;;;;;;;;;;;3.64;59.38;98985.31;4424218;32;20022;-92
2022/04/03 04:27:27;;;;;;;;;;;;;;;3.66;59.38;98993.00;4423434;32;19984;-92
2022/04/03 04:29:52;;;;;;;;;;;;;;;3.73;59.38;98994.59;4444547;32;20033;-95
2022/04/03 04:32:21;;;;;;;;;;;;;;;3.75;59.38;99000.56;4417897;32;19989;-92
2022/04/03 04:34:50;;;;;;;;;;;;;;;3.93;59.40;98999.41;4419010;32;20406;-93
2022/04/03 04:37:16;;;;;;;;;;;;;;;3.74;59.38;99006.59;4423080;32;19969;-92
2022/04/03 04:39:42;;;;;;;;;;;;;;;3.71;59.38;99014.38;4431370;32;20540;-93
2022/04/03 04:42:07;;;;;;;;;;;;;;;3.73;59.38;99020.34;4427101;32;20012;-89
2022/04/03 04:44:32;;;;;;;;;;;;;;;3.77;59.39;99018.56;4429108;32;20047;-88
2022/04/03 04:46:58;;;;;;;;;;;;;;;3.82;59.38;99024.50;4431377;32;24218;-88
2022/04/03 04:49:23;;;;;;;;;;;;;;;3.79;59.39;99033.13;4428635;32;20333;-88
2022/04/03 04:51:48;;;;;;;;;;;;;;;3.85;59.39;99030.47;4429835;32;20096;-91
2022/04/03 04:54:14;;;;;;;;;;;;;;;4.00;59.40;99030.19;4424660;32;20033;-91
2022/04/03 04:56:39;;;;;;;;;;;;;;;4.09;59.41;99036.06;4438133;32;19981;-93
2022/04/03 04:59:04;;;;;;;;;;;;;;;3.97;59.39;99044.84;4450763;32;19990;-91
2022/04/03 05:01:30;;;;;;;;;;;;;;;4.08;59.41;99049.81;4435943;32;20029;-90
2022/04/03 05:03:55;;;;;;;;;;;;;;;4.11;59.41;99042.88;4427460;32;20015;-89
2022/04/03 05:06:23;;;;;;;;;;;;;;;4.04;59.40;99053.34;4433185;32;19991;-90
2022/04/03 05:08:48;;;;;;;;;;;;;;;4.10;59.40;99055.78;4426372;32;19973;-90
2022/04/03 05:11:14;;;;;;;;;;;;;;;3.97;59.40;99060.28;4429264;32;20028;-89
2022/04/03 05:13:39;;;;;;;;;;;;;;;4.26;59.41;99058.09;4438475;32;20071;-88
2022/04/03 05:16:04;;;;;;;;;;;;;;;4.22;59.41;99064.16;4426361;32;27351;-89
2022/04/03 05:18:39;;;;;;;;;;;;;;;4.26;59.41;99059.81;4412642;32;20001;-93
2022/04/03 05:21:10;;;;;;;;;;;;;;;4.29;59.42;99063.19;4435030;32;20001;-92
2022/04/03 05:23:53;;;;;;;;;;;;;;;;;;;;;
2022/04/03 05:26:30;;;;;;;;;;;;;;;4.51;59.43;99071.37;4426656;32;35715;-93
2022/04/03 05:28:56;;;;;;;;;;;;;;;4.60;59.44;99072.91;4413869;32;20019;-91
2022/04/03 05:31:21;;;;;;;;;;;;;;;4.77;59.44;99067.44;4410364;32;20343;-90
2022/04/03 05:34:09;;;;;;;;;;;;;;;4.91;59.45;99074.00;4418682;32;20086;-92
2022/04/03 05:36:35;;;;;;;;;;;;;;;4.69;59.44;99082.19;4427361;32;20319;-89
2022/04/03 05:39:04;;;;;;;;;;;;;;;4.60;59.44;99088.38;4410188;32;19966;-88
2022/04/03 05:41:29;;;;;;;;;;;;;;;4.54;59.43;99093.66;4436539;32;19985;-91
2022/04/03 05:43:54;;;;;;;;;;;;;;;4.65;59.44;99102.03;4437005;32;19977;-88
2022/04/03 05:46:23;;;;;;;;;;;;;;;4.61;59.43;99096.09;4459801;32;20072;-90
2022/04/03 05:48:48;;;;;;;;;;;;;;;4.82;59.45;99106.88;4417264;32;19977;-89
2022/04/03 05:51:13;;;;;;;;;;;;;;;4.75;59.45;99098.44;4431804;32;20031;-89
2022/04/03 05:53:40;;;;;;;;;;;;;;;4.59;59.43;99108.16;4455021;32;19985;-94
2022/04/03 05:59:14;;;;;;;;;;;;;;;4.75;59.44;99107.88;4419128;32;19954;-95
2022/04/03 06:02:07;;;;;;;;;;;;;;;;;;;;;
2022/04/03 06:07:40;;;;;;;;;;;;;;;4.49;59.42;99123.78;4412458;32;20074;-95
2022/04/03 06:10:05;;;;;;;;;;;;;;;4.41;59.42;99130.81;4437703;32;19986;-92
2022/04/03 06:12:30;;;;;;;;;;;;;;;4.36;59.42;99130.91;4445273;32;19985;-92
2022/04/03 06:14:56;;;;;;;;;;;;;;;4.36;59.42;99135.19;4447086;32;20004;-93
2022/04/03 06:17:26;;;;;;;;;;;;;;;4.22;59.41;99138.00;4415111;32;19992;-93
2022/04/03 06:19:51;;;;;;;;;;;;;;;4.09;59.41;99141.66;4437990;32;19977;-87
2022/04/03 06:22:16;;;;;;;;;;;;;;;4.24;59.41;99142.25;4416884;32;20047;-87
2022/04/03 06:24:42;;;;;;;;;;;;;;;4.26;59.41;99145.69;4436201;32;20002;-86
2022/04/03 06:27:07;;;;;;;;;;;;;;;4.37;59.42;99148.06;4438887;32;19989;-86
2022/04/03 06:29:32;;;;;;;;;;;;;;;4.26;59.41;99152.56;4429430;32;19989;-87
2022/04/03 06:31:58;;;;;;;;;;;;;;;4.31;59.42;99155.91;4431772;32;20286;-87
2022/04/03 06:34:24;;;;;;;;;;;;;;;4.34;59.42;99160.16;4449516;32;20303;-87
2022/04/03 06:36:49;;;;;;;;;;;;;;;4.29;59.42;99160.22;4444057;32;19997;-88
2022/04/03 06:39:14;;;;;;;;;;;;;;;4.24;59.41;99167.16;4449606;32;19970;-88
2022/04/03 06:41:39;;;;;;;;;;;;;;;4.35;59.41;99169.56;4449393;32;20380;-87
2022/04/03 06:44:05;;;;;;;;;;;;;;;4.18;59.41;99172.41;4437769;32;19990;-88
2022/04/03 06:46:30;;;;;;;;;;;;;;;4.45;59.43;99182.28;4448397;32;19997;-86
2022/04/03 06:48:55;;;;;;;;;;;;;;;4.53;59.43;99184.75;4437827;32;20023;-88
2022/04/03 06:51:21;;;;;;;;;;;;;;;4.46;59.42;99183.97;4433715;32;20068;-88
2022/04/03 06:53:46;;;;;;;;;;;;;;;4.42;59.42;99184.06;4421235;32;20031;-87
2022/04/03 06:56:11;;;;;;;;;;;;;;;4.59;59.43;99195.78;4419029;32;19982;-92
2022/04/03 06:58:37;;;;;;;;;;;;;;;4.63;59.44;99194.00;4436294;32;20105;-91
2022/04/03 07:01:02;;;;;;;;;;;;;;;4.58;59.43;99191.50;4445808;32;20051;-89
2022/04/03 07:03:28;;;;;;;;;;;;;;;4.61;59.43;99194.03;4437601;32;20293;-88
2022/04/03 07:05:53;;;;;;;;;;;;;;;4.65;59.44;99201.72;4432690;32;19996;-89
2022/04/03 07:08:19;;;;;;;;;;;;;;;4.61;59.43;99208.66;4436258;32;19997;-87
2022/04/03 07:10:44;;;;;;;;;;;;;;;4.78;59.44;99208.37;4444998;32;20311;-91
2022/04/03 07:13:10;;;;;;;;;;;;;;;4.96;59.45;99207.19;4437011;32;20014;-86
2022/04/03 07:15:39;;;;;;;;;;;;;;;5.02;59.46;99209.66;4449850;32;20026;-90
2022/04/03 07:18:04;;;;;;;;;;;;;;;4.63;59.43;99222.38;4447004;32;20365;-87
2022/04/03 07:20:30;;;;;;;;;;;;;;;4.67;59.44;99223.16;4438636;32;19985;-87
2022/04/03 07:22:56;;;;;;;;;;;;;;;4.61;59.43;99237.00;4437898;32;20003;-87
2022/04/03 07:25:21;;;;;;;;;;;;;;;4.69;59.44;99234.28;4434970;32;20296;-85
2022/04/03 07:27:47;;;;;;;;;;;;;;;4.62;59.43;99234.41;4444314;32;20325;-85
2022/04/03 07:30:12;;;;;;;;;;;;;;;4.50;59.44;99247.50;4448989;32;20049;-86
2022/04/03 07:32:38;;;;;;;;;;;;;;;4.50;59.43;99247.50;4449364;32;20331;-86
2022/04/03 07:35:03;;;;;;;;;;;;;;;4.66;59.44;99253.25;4439849;32;20018;-85
2022/04/03 07:37:29;;;;;;;;;;;;;;;4.92;59.45;99255.38;4439999;32;20012;-86
2022/04/03 07:39:54;;;;;;;;;;;;;;;4.97;59.45;99261.34;4447179;32;20314;-86
2022/04/03 07:42:19;;;;;;;;;;;;;;;4.86;59.44;99261.50;4452131;32;20004;-85
2022/04/03 07:44:45;;;;;;;;;;;;;;;5.19;59.47;99264.38;4446129;32;20332;-86
2022/04/03 07:47:11;;;;;;;;;;;;;;;5.06;59.46;99268.91;4452082;32;19984;-86
2022/04/03 07:49:36;;;;;;;;;;;;;;;5.42;59.48;99274.28;4452167;32;20004;-86
2022/04/03 07:52:02;;;;;;;;;;;;;;;5.38;59.47;99276.06;4434428;32;19993;-86
2022/04/03 07:54:27;;;;;;;;;;;;;;;5.32;59.48;99283.94;4451993;32;19985;-88
2022/04/03 07:56:52;;;;;;;;;;;;;;;5.10;59.46;99283.44;4440483;32;20017;-89
2022/04/03 07:59:17;;;;;;;;;;;;;;;5.46;59.48;99296.59;4449659;32;19993;-88
2022/04/03 08:01:43;;;;;;;;;;;;;;;5.36;59.47;99293.31;4440224;32;19981;-87
2022/04/03 08:04:10;;;;;;;;;;;;;;;5.47;59.48;99300.87;4448179;32;19974;-88
2022/04/03 08:06:36;;;;;;;;;;;;;;;5.41;59.48;99300.97;4438447;32;20019;-87
2022/04/03 08:09:01;;;;;;;;;;;;;;;5.30;59.47;99311.50;4434707;32;19989;-87
2022/04/03 08:11:26;;;;;;;;;;;;;;;5.28;59.47;99307.25;4451781;32;19985;-88
2022/04/03 08:13:51;;;;;;;;;;;;;;;5.23;59.46;99309.91;4433922;32;20326;-89
2022/04/03 08:16:17;;;;;;;;;;;;;;;5.32;59.48;99306.31;4438411;32;20041;-88
2022/04/03 08:18:42;;;;;;;;;;;;;;;5.46;59.48;99312.06;4445639;32;20039;-87
2022/04/03 08:21:07;;;;;;;;;;;;;;;5.44;59.48;99325.00;4439994;32;20046;-87
2022/04/03 08:23:33;;;;;;;;;;;;;;;5.46;59.49;99318.09;4440014;32;19989;-87
2022/04/03 08:25:58;;;;;;;;;;;;;;;5.54;59.49;99329.13;4447206;32;20269;-88
2022/04/03 08:28:23;;;;;;;;;;;;;;;5.47;59.48;99327.53;4438495;32;19985;-88
2022/04/03 08:30:48;;;;;;;;;;;;;;;5.41;59.48;99327.63;4446281;32;20004;-88
2022/04/03 08:33:14;;;;;;;;;;;;;;;5.15;59.46;99333.22;4439746;32;20307;-88
2022/04/03 08:35:40;;;;;;;;;;;;;;;5.16;59.46;99341.81;4432073;32;19993;-89
2022/04/03 08:38:06;;;;;;;;;;;;;;;5.27;59.47;99344.25;4451480;32;19986;-87
2022/04/03 08:40:31;;;;;;;;;;;;;;;5.23;59.46;99346.88;4451759;32;20321;-88
2022/04/03 08:42:57;;;;;;;;;;;;;;;5.17;59.47;99354.69;4434008;32;20301;-88
2022/04/03 08:45:22;;;;;;;;;;;;;;;5.07;59.46;99349.72;4450154;32;20043;-89
2022/04/03 08:47:48;;;;;;;;;;;;;;;5.38;59.47;99358.66;4440117;32;19992;-88
2022/04/03 08:50:14;;;;;;;;;;;;;;;5.42;59.48;99359.44;4448119;32;20015;-89
2022/04/03 08:52:49;;;;;;;;;;;;;;;5.37;59.47;99351.78;4438622;32;19985;-89
2022/04/03 08:55:15;;;;;;;;;;;;;;;5.41;59.48;99357.75;4438938;32;20038;-89
2022/04/03 08:57:40;;;;;;;;;;;;;;;5.36;59.47;99360.41;4432572;32;19981;-88
2022/04/03 09:00:05;;;;;;;;;;;;;;;5.60;59.48;99364.28;4438623;32;20011;-87
2022/04/03 09:02:31;;;;;;;;;;;;;;;5.84;59.51;99366.41;4438621;32;19974;-87
2022/04/03 09:04:56;;;;;;;;;;;;;;;6.06;59.52;99368.63;4446777;32;19985;-88
2022/04/03 09:07:21;;;;;;;;;;;;;;;6.03;59.51;99363.50;4451324;32;20019;-88
2022/04/03 09:09:55;;;;;;;;;;;;;;;6.09;59.52;99351.31;4432260;32;19993;-89
2022/04/03 09:12:20;;;;;;;;;;;;;;;6.07;59.52;99354.81;4438698;32;19978;-88
2022/04/03 09:14:50;;;;;;;;;;;;;;;5.78;59.50;99363.09;4445812;32;20346;-87
2022/04/03 09:17:31;;;;;;;;;;;;;;;5.60;59.48;99363.44;4451367;32;20004;-91
2022/04/03 09:19:59;;;;;;;;;;;;;;;5.50;59.48;99373.09;4433627;32;20001;-89
2022/04/03 09:22:28;;;;;;;;;;;;;;;5.75;59.49;99379.50;4451715;32;19978;-89
2022/04/03 09:24:55;;;;;;;;;;;;;;;5.92;59.51;99374.06;4446276;32;20610;-86
2022/04/03 09:27:20;;;;;;;;;;;;;;;6.25;59.52;99369.97;4411286;32;20007;-92
2022/04/03 09:29:45;;;;;;;;;;;;;;;6.46;59.54;99379.00;4410890;32;19998;-90
2022/04/03 09:32:11;;;;;;;;;;;;;;;6.28;59.53;99375.06;4423169;32;19988;-90
2022/04/03 09:34:38;;;;;;;;;;;;;;;6.19;59.52;99384.75;4425555;32;19973;-89
2022/04/03 09:37:06;;;;;;;;;;;;;;;6.37;59.53;99387.78;4410786;32;20810;-92
2022/04/03 09:39:32;;;;;;;;;;;;;;;6.62;59.54;99389.84;4448547;32;19997;-90
2022/04/03 09:42:01;;;;;;;;;;;;;;;6.55;59.54;99388.28;4410629;32;19969;-90
2022/04/03 09:44:31;;;;;;;;;;;;;;;6.45;59.54;99393.66;4434715;32;19969;-92
2022/04/03 09:47:15;;;;;;;;;;;;;;;6.55;59.54;99393.47;4410944;32;19990;-90
2022/04/03 09:49:41;;;;;;;;;;;;;;;6.34;59.53;99395.59;4451439;32;20014;-91
2022/04/03 09:52:06;;;;;;;;;;;;;;;6.33;59.53;99403.41;4410489;32;20000;-90
2022/04/03 09:54:32;;;;;;;;;;;;;;;6.45;59.54;99396.25;4425246;32;19965;-92
2022/04/03 09:57:17;;;;;;;;;;;;;;;6.19;59.52;99408.00;4439262;32;19969;-92
2022/04/03 09:59:49;;;;;;;;;;;;;;;6.13;59.51;99408.94;4425390;32;20009;-92
2022/04/03 10:02:15;;;;;;;;;;;;;;;6.34;59.53;99407.69;4410237;32;20391;-91
2022/04/03 10:04:40;;;;;;;;;;;;;;;6.27;59.52;99422.47;4410291;32;19974;-89
2022/04/03 10:07:05;;;;;;;;;;;;;;;6.35;59.54;99407.66;4428623;32;19997;-91
2022/04/03 10:09:31;;;;;;;;;;;;;;;6.32;59.53;99412.88;4410873;32;20008;-91
2022/04/03 10:11:56;;;;;;;;;;;;;;;6.29;59.53;99419.84;4410422;32;19986;-90
2022/04/03 10:14:21;;;;;;;;;;;;;;;6.35;59.54;99423.16;4422913;32;20020;-88
2022/04/03 10:16:46;;;;;;;;;;;;;;;6.72;59.55;99417.22;4409739;32;19998;-90
2022/04/03 10:19:12;;;;;;;;;;;;;;;6.62;59.54;99431.22;4422633;32;20348;-91
2022/04/03 10:21:41;;;;;;;;;;;;;;;6.47;59.54;99425.50;4425408;32;19978;-92
2022/04/03 10:24:12;;;;;;;;;;;;;;;6.32;59.53;99428.38;4409881;32;19970;-92
2022/04/03 10:26:37;;;;;;;;;;;;;;;6.59;59.55;99429.56;4437609;32;20039;-91
2022/04/03 10:29:04;;;;;;;;;;;;;;;7.00;59.57;99430.41;4410368;32;20703;-91
2022/04/03 10:31:29;;;;;;;;;;;;;;;6.80;59.56;99430.84;4434821;32;19978;-93
2022/04/03 10:33:55;;;;;;;;;;;;;;;7.00;59.56;99431.25;4422274;32;20020;-87
2022/04/03 10:36:24;;;;;;;;;;;;;;;7.02;59.57;99429.47;4444203;32;20017;-89
2022/04/03 10:38:58;;;;;;;;;;;;;;;7.02;59.56;99428.63;4409878;32;20053;-89
2022/04/03 10:41:29;;;;;;;;;;;;;;;7.09;59.58;99431.03;4445507;32;20000;-89
2022/04/03 10:44:14;;;;;;;;;;;;;;;7.29;59.58;99427.97;4445746;32;19984;-88
2022/04/03 10:46:58;;;;;;;;;;;;;;;7.41;59.59;99432.03;4449940;32;20059;-87
2022/04/03 10:49:30;;;;;;;;;;;;;;;7.68;59.60;99433.09;4450606;32;19993;-88
2022/04/03 10:52:05;;;;;;;;;;;;;;;7.63;59.61;99440.12;4438188;32;19977;-88
2022/04/03 10:54:30;;;;;;;;;;;;;;;7.72;59.61;99431.25;4438625;32;20027;-88
2022/04/03 10:57:14;;;;;;;;;;;;;;;7.60;59.60;99445.37;4421349;32;20001;-87
2022/04/03 10:59:40;;;;;;;;;;;;;;;7.56;59.60;99434.22;4450624;32;20052;-88
2022/04/03 11:02:23;;;;;;;;;;;;;;;7.54;59.59;99433.41;4408686;32;19982;-88
2022/04/03 11:04:48;;;;;;;;;;;;;;;7.46;59.58;99439.69;4432925;32;20350;-88
2022/04/03 11:07:13;;;;;;;;;;;;;;;7.68;59.60;99441.69;4446229;32;20589;-88
2022/04/03 11:09:45;;;;;;;;;;;;;;;7.93;59.62;99459.22;4422652;32;19981;-88
2022/04/03 11:12:10;;;;;;;;;;;;;;;7.59;59.60;99446.28;4410986;32;19986;-88
2022/04/03 11:14:58;;;;;;;;;;;;;;;7.77;59.61;99443.19;4426086;32;20004;-88
2022/04/03 11:17:42;;;;;;;;;;;;;;;7.70;59.61;99450.28;4440348;32;20098;-88
2022/04/03 11:20:07;;;;;;;;;;;;;;;7.63;59.61;99456.50;4440212;32;20052;-88
2022/04/03 11:22:33;;;;;;;;;;;;;;;7.72;59.61;99462.34;4440175;32;19978;-88
2022/04/03 11:24:58;;;;;;;;;;;;;;;8.05;59.62;99465.84;4411465;32;19970;-88
2022/04/03 11:27:23;;;;;;;;;;;;;;;8.15;59.63;99462.94;4424927;32;20346;-89
2022/04/03 11:29:49;;;;;;;;;;;;;;;8.11;59.63;99455.28;4423548;32;19985;-88
2022/04/03 11:32:14;;;;;;;;;;;;;;;8.15;59.64;99459.50;4437542;32;19981;-88
2022/04/03 11:34:40;;;;;;;;;;;;;;;7.90;59.61;99460.16;4423897;32;19962;-88
2022/04/03 11:37:05;;;;;;;;;;;;;;;7.96;59.62;99462.56;4441447;32;32007;-90
2022/04/03 11:39:31;;;;;;;;;;;;;;;7.93;59.62;99469.56;4439567;32;20035;-89
2022/04/03 11:41:57;;;;;;;;;;;;;;;7.74;59.61;99473.53;4411079;32;19998;-88
2022/04/03 11:44:24;;;;;;;;;;;;;;;7.91;59.61;99467.03;4438401;32;20313;-88
2022/04/03 11:46:49;;;;;;;;;;;;;;;8.13;59.63;99472.50;4440504;32;19990;-88
2022/04/03 11:49:15;;;;;;;;;;;;;;;8.20;59.63;99468.84;4439666;32;31076;-88
2022/04/03 11:51:40;;;;;;;;;;;;;;;8.20;59.63;99475.78;4411117;32;19986;-88
2022/04/03 11:54:06;;;;;;;;;;;;;;;7.82;59.61;99469.88;4442404;32;19978;-89
2022/04/03 11:56:34;;;;;;;;;;;;;;;7.77;59.62;99476.03;4412949;32;20009;-88
2022/04/03 11:58:59;;;;;;;;;;;;;;;7.93;59.62;99478.22;4424074;32;19985;-88
2022/04/03 12:01:25;;;;;;;;;;;;;;;8.21;59.63;99469.69;4447334;32;19982;-89
2022/04/03 12:03:58;;;;;;;;;;;;;;;7.97;59.62;99489.34;4410958;32;19984;-89
2022/04/03 12:06:23;;;;;;;;;;;;;;;7.90;59.61;99495.56;4447027;32;19990;-87
2022/04/03 12:08:48;;;;;;;;;;;;;;;7.88;59.62;99492.19;4423161;32;30513;-88
2022/04/03 12:11:16;;;;;;;;;;;;;;;7.73;59.61;99493.41;4431000;32;19986;-88
2022/04/03 12:13:41;;;;;;;;;;;;;;;7.48;59.60;99487.94;4417653;32;20039;-89
2022/04/03 12:16:07;;;;;;;;;;;;;;;7.77;59.62;99486.41;4423652;32;19994;-89
2022/04/03 12:18:47;;;;;;;;;;;;;;;7.87;59.62;99485.28;4412628;32;19982;-89
2022/04/03 12:21:13;;;;;;;;;;;;;;;7.95;59.62;99481.59;4448983;32;19992;-88
2022/04/03 12:23:38;;;;;;;;;;;;;;;8.09;59.63;99481.25;4440367;32;19981;-89
2022/04/03 12:26:03;;;;;;;;;;;;;;;8.28;59.64;99479.00;4436964;32;20032;-87
2022/04/03 12:28:28;;;;;;;;;;;;;;;8.24;59.64;99479.97;4437661;32;19988;-87
2022/04/03 12:30:59;;;;;;;;;;;;;;;8.00;59.63;99481.47;4431084;32;20262;-87
2022/04/03 12:33:24;;;;;;;;;;;;;;;8.14;59.63;99483.72;4434919;32;20035;-88
2022/04/03 12:35:49;;;;;;;;;;;;;;;8.05;59.62;99469.28;4436013;32;19989;-86
2022/04/03 12:38:14;;;;;;;;;;;;;;;8.02;59.62;99480.56;4443768;32;27524;-86
2022/04/03 12:40:46;;;;;;;;;;;;;;;8.16;59.63;99482.78;4445306;32;20014;-88
2022/04/03 12:43:11;;;;;;;;;;;;;;;8.16;59.63;99481.94;4449651;32;19981;-87
2022/04/03 12:45:37;;;;;;;;;;;;;;;8.13;59.63;99482.03;4424764;32;20012;-87
2022/04/03 12:48:03;;;;;;;;;;;;;;;8.14;59.64;99476.81;4433492;32;19997;-89
2022/04/03 12:50:31;;;;;;;;;;;;;;;8.37;59.65;99473.63;4424873;32;20170;-87
2022/04/03 12:53:03;;;;;;;;;;;;;;;8.51;59.66;99486.19;4438933;32;19973;-86
2022/04/03 12:55:35;;;;;;;;;;;;;;;8.57;59.66;99471.31;4424296;32;19993;-88
2022/04/03 13:00:57;;;;;;;;;;;;;;;8.59;59.66;99484.25;4438834;32;20683;-87
2022/04/03 13:03:22;;;;;;;;;;;;;;;8.51;59.66;99488.78;4438512;32;19996;-88
2022/04/03 13:05:48;;;;;;;;;;;;;;;8.39;59.65;99486.53;4438575;32;20015;-88